sensor_id;sensor_type;location;lat;lon;timestamp;P1;durP1;ratioP1;P2;durP2;ratioP2
11837;SDS011;5978;51.020;6.764;2024-02-15T00:00:36;8.77;;;4.87;;
11837;SDS011;5978;51.020;6.764;2024-02-15T00:03:02;6.90;;;4.80;;
11837;SDS011;5978;51.020;6.764;2024-02-15T00:05:31;9.30;;;4.97;;
11837;SDS011;5978;51.020;6.764;2024-02-15T00:07:57;8.53;;;4.40;;
11837;SDS011;5978;51.020;6.764;2024-02-15T00:10:24;8.73;;;5.17;;
11837;SDS011;5978;51.020;6.764;2024-02-15T00:12:50;8.03;;;4.70;;
11837;SDS011;5978;51.020;6.764;2024-02-15T00:15:16;11.70;;;5.73;;
11837;SDS011;5978;51.020;6.764;2024-02-15T00:17:42;5.50;;;4.63;;
11837;SDS011;5978;51.020;6.764;2024-02-15T00:20:07;16.07;;;4.73;;
11837;SDS011;5978;51.020;6.764;2024-02-15T00:22:35;8.97;;;5.47;;
11837;SDS011;5978;51.020;6.764;2024-02-15T00:25:01;9.90;;;4.77;;
11837;SDS011;5978;51.020;6.764;2024-02-15T00:27:27;13.13;;;6.00;;
11837;SDS011;5978;51.020;6.764;2024-02-15T00:29:53;7.93;;;4.10;;
11837;SDS011;5978;51.020;6.764;2024-02-15T00:32:19;5.87;;;5.27;;
11837;SDS011;5978;51.020;6.764;2024-02-15T00:34:44;12.47;;;4.90;;
11837;SDS011;5978;51.020;6.764;2024-02-15T00:37:10;7.97;;;5.63;;
11837;SDS011;5978;51.020;6.764;2024-02-15T00:39:36;12.27;;;5.33;;
11837;SDS011;5978;51.020;6.764;2024-02-15T00:42:02;9.53;;;5.30;;
11837;SDS011;5978;51.020;6.764;2024-02-15T00:44:28;8.83;;;5.40;;
11837;SDS011;5978;51.020;6.764;2024-02-15T00:46:54;6.77;;;4.90;;
11837;SDS011;5978;51.020;6.764;2024-02-15T00:49:21;9.43;;;5.40;;
11837;SDS011;5978;51.020;6.764;2024-02-15T00:51:47;7.97;;;5.40;;
11837;SDS011;5978;51.020;6.764;2024-02-15T00:54:13;9.23;;;5.10;;
11837;SDS011;5978;51.020;6.764;2024-02-15T00:56:40;7.60;;;4.80;;
11837;SDS011;5978;51.020;6.764;2024-02-15T00:59:05;11.10;;;5.97;;
11837;SDS011;5978;51.020;6.764;2024-02-15T01:01:31;8.10;;;5.13;;
11837;SDS011;5978;51.020;6.764;2024-02-15T01:03:57;11.73;;;5.33;;
11837;SDS011;5978;51.020;6.764;2024-02-15T01:06:23;11.03;;;4.97;;
11837;SDS011;5978;51.020;6.764;2024-02-15T01:08:49;8.90;;;5.93;;
11837;SDS011;5978;51.020;6.764;2024-02-15T01:11:14;10.20;;;5.23;;
11837;SDS011;5978;51.020;6.764;2024-02-15T01:13:40;15.63;;;5.03;;
11837;SDS011;5978;51.020;6.764;2024-02-15T01:16:07;14.37;;;5.30;;
11837;SDS011;5978;51.020;6.764;2024-02-15T01:18:33;17.10;;;5.87;;
11837;SDS011;5978;51.020;6.764;2024-02-15T01:20:59;9.50;;;5.47;;
11837;SDS011;5978;51.020;6.764;2024-02-15T01:23:25;7.80;;;5.50;;
11837;SDS011;5978;51.020;6.764;2024-02-15T01:25:52;9.70;;;4.97;;
11837;SDS011;5978;51.020;6.764;2024-02-15T01:28:17;9.83;;;5.53;;
11837;SDS011;5978;51.020;6.764;2024-02-15T01:30:47;8.53;;;5.00;;
11837;SDS011;5978;51.020;6.764;2024-02-15T01:33:12;8.23;;;5.40;;
11837;SDS011;5978;51.020;6.764;2024-02-15T01:35:38;11.17;;;5.20;;
11837;SDS011;5978;51.020;6.764;2024-02-15T01:38:07;6.97;;;5.43;;
11837;SDS011;5978;51.020;6.764;2024-02-15T01:40:33;12.43;;;5.40;;
11837;SDS011;5978;51.020;6.764;2024-02-15T01:43:00;8.70;;;5.00;;
11837;SDS011;5978;51.020;6.764;2024-02-15T01:45:25;8.40;;;5.20;;
11837;SDS011;5978;51.020;6.764;2024-02-15T01:47:53;13.27;;;4.80;;
11837;SDS011;5978;51.020;6.764;2024-02-15T01:50:19;7.83;;;5.53;;
11837;SDS011;5978;51.020;6.764;2024-02-15T01:52:47;6.67;;;4.90;;
11837;SDS011;5978;51.020;6.764;2024-02-15T01:55:14;15.33;;;4.90;;
11837;SDS011;5978;51.020;6.764;2024-02-15T01:57:49;8.30;;;5.03;;
11837;SDS011;5978;51.020;6.764;2024-02-15T02:00:17;8.27;;;4.83;;
11837;SDS011;5978;51.020;6.764;2024-02-15T02:02:45;8.20;;;4.30;;
11837;SDS011;5978;51.020;6.764;2024-02-15T02:05:12;7.63;;;4.63;;
11837;SDS011;5978;51.020;6.764;2024-02-15T02:07:38;10.50;;;4.90;;
11837;SDS011;5978;51.020;6.764;2024-02-15T02:10:04;7.10;;;4.47;;
11837;SDS011;5978;51.020;6.764;2024-02-15T02:12:30;6.30;;;4.27;;
11837;SDS011;5978;51.020;6.764;2024-02-15T02:14:56;8.93;;;5.00;;
11837;SDS011;5978;51.020;6.764;2024-02-15T02:17:22;7.60;;;4.77;;
11837;SDS011;5978;51.020;6.764;2024-02-15T02:19:48;6.00;;;4.27;;
11837;SDS011;5978;51.020;6.764;2024-02-15T02:22:17;7.20;;;4.30;;
11837;SDS011;5978;51.020;6.764;2024-02-15T02:24:53;8.53;;;5.00;;
11837;SDS011;5978;51.020;6.764;2024-02-15T02:27:21;5.70;;;4.83;;
11837;SDS011;5978;51.020;6.764;2024-02-15T02:29:48;8.27;;;4.90;;
11837;SDS011;5978;51.020;6.764;2024-02-15T02:32:14;9.10;;;4.70;;
11837;SDS011;5978;51.020;6.764;2024-02-15T02:34:39;8.47;;;5.37;;
11837;SDS011;5978;51.020;6.764;2024-02-15T02:37:09;6.13;;;4.43;;
11837;SDS011;5978;51.020;6.764;2024-02-15T02:39:35;6.70;;;4.13;;
11837;SDS011;5978;51.020;6.764;2024-02-15T02:42:00;5.37;;;4.43;;
11837;SDS011;5978;51.020;6.764;2024-02-15T02:44:26;4.47;;;4.10;;
11837;SDS011;5978;51.020;6.764;2024-02-15T02:46:52;4.90;;;4.40;;
11837;SDS011;5978;51.020;6.764;2024-02-15T02:49:18;4.00;;;3.43;;
11837;SDS011;5978;51.020;6.764;2024-02-15T02:51:43;4.43;;;3.67;;
11837;SDS011;5978;51.020;6.764;2024-02-15T02:54:10;4.47;;;3.10;;
11837;SDS011;5978;51.020;6.764;2024-02-15T02:56:36;4.87;;;3.17;;
11837;SDS011;5978;51.020;6.764;2024-02-15T02:59:02;3.90;;;3.50;;
11837;SDS011;5978;51.020;6.764;2024-02-15T03:01:28;2.90;;;2.47;;
11837;SDS011;5978;51.020;6.764;2024-02-15T03:03:54;4.03;;;2.80;;
11837;SDS011;5978;51.020;6.764;2024-02-15T03:06:21;3.33;;;3.03;;
11837;SDS011;5978;51.020;6.764;2024-02-15T03:08:49;6.07;;;3.50;;
11837;SDS011;5978;51.020;6.764;2024-02-15T03:11:19;6.90;;;2.97;;
11837;SDS011;5978;51.020;6.764;2024-02-15T03:13:45;3.67;;;3.37;;
11837;SDS011;5978;51.020;6.764;2024-02-15T03:16:13;3.13;;;2.83;;
11837;SDS011;5978;51.020;6.764;2024-02-15T03:18:39;3.97;;;2.80;;
11837;SDS011;5978;51.020;6.764;2024-02-15T03:21:06;2.93;;;2.63;;
11837;SDS011;5978;51.020;6.764;2024-02-15T03:23:35;2.60;;;2.40;;
11837;SDS011;5978;51.020;6.764;2024-02-15T03:26:02;4.20;;;3.53;;
11837;SDS011;5978;51.020;6.764;2024-02-15T03:28:30;3.33;;;3.03;;
11837;SDS011;5978;51.020;6.764;2024-02-15T03:30:56;4.33;;;3.93;;
11837;SDS011;5978;51.020;6.764;2024-02-15T03:33:25;6.00;;;3.30;;
11837;SDS011;5978;51.020;6.764;2024-02-15T03:35:54;4.27;;;3.90;;
11837;SDS011;5978;51.020;6.764;2024-02-15T03:38:24;6.73;;;4.50;;
11837;SDS011;5978;51.020;6.764;2024-02-15T03:40:52;5.00;;;3.30;;
11837;SDS011;5978;51.020;6.764;2024-02-15T03:43:18;3.33;;;3.03;;
11837;SDS011;5978;51.020;6.764;2024-02-15T03:45:47;3.10;;;2.90;;
11837;SDS011;5978;51.020;6.764;2024-02-15T03:48:13;6.33;;;3.40;;
11837;SDS011;5978;51.020;6.764;2024-02-15T03:50:39;4.97;;;2.90;;
11837;SDS011;5978;51.020;6.764;2024-02-15T03:53:05;6.17;;;3.60;;
11837;SDS011;5978;51.020;6.764;2024-02-15T03:55:31;7.00;;;3.30;;
11837;SDS011;5978;51.020;6.764;2024-02-15T03:57:58;4.30;;;3.70;;
11837;SDS011;5978;51.020;6.764;2024-02-15T04:00:24;4.10;;;3.70;;
11837;SDS011;5978;51.020;6.764;2024-02-15T04:02:50;4.87;;;3.33;;
11837;SDS011;5978;51.020;6.764;2024-02-15T04:05:15;4.60;;;4.20;;
11837;SDS011;5978;51.020;6.764;2024-02-15T04:07:43;4.50;;;4.10;;
11837;SDS011;5978;51.020;6.764;2024-02-15T04:10:10;6.50;;;4.23;;
11837;SDS011;5978;51.020;6.764;2024-02-15T04:12:36;6.67;;;5.00;;
11837;SDS011;5978;51.020;6.764;2024-02-15T04:15:04;5.53;;;4.70;;
11837;SDS011;5978;51.020;6.764;2024-02-15T04:17:36;7.33;;;5.53;;
11837;SDS011;5978;51.020;6.764;2024-02-15T04:20:03;6.10;;;5.50;;
11837;SDS011;5978;51.020;6.764;2024-02-15T04:22:31;10.90;;;5.90;;
11837;SDS011;5978;51.020;6.764;2024-02-15T04:25:06;9.10;;;7.07;;
11837;SDS011;5978;51.020;6.764;2024-02-15T04:27:35;7.10;;;6.40;;
11837;SDS011;5978;51.020;6.764;2024-02-15T04:30:01;9.20;;;7.27;;
11837;SDS011;5978;51.020;6.764;2024-02-15T04:32:29;7.30;;;6.60;;
11837;SDS011;5978;51.020;6.764;2024-02-15T04:34:58;7.90;;;6.87;;
11837;SDS011;5978;51.020;6.764;2024-02-15T04:37:24;8.83;;;6.50;;
11837;SDS011;5978;51.020;6.764;2024-02-15T04:39:52;6.27;;;5.57;;
11837;SDS011;5978;51.020;6.764;2024-02-15T04:42:17;7.13;;;6.43;;
11837;SDS011;5978;51.020;6.764;2024-02-15T04:44:43;7.47;;;6.50;;
11837;SDS011;5978;51.020;6.764;2024-02-15T04:47:09;10.70;;;7.30;;
11837;SDS011;5978;51.020;6.764;2024-02-15T04:49:35;8.13;;;7.33;;
11837;SDS011;5978;51.020;6.764;2024-02-15T04:52:04;11.27;;;6.20;;
11837;SDS011;5978;51.020;6.764;2024-02-15T04:54:32;8.40;;;6.80;;
11837;SDS011;5978;51.020;6.764;2024-02-15T04:56:58;10.57;;;7.13;;
11837;SDS011;5978;51.020;6.764;2024-02-15T04:59:25;6.27;;;5.50;;
11837;SDS011;5978;51.020;6.764;2024-02-15T05:01:52;8.10;;;6.57;;
11837;SDS011;5978;51.020;6.764;2024-02-15T05:04:18;7.73;;;5.70;;
11837;SDS011;5978;51.020;6.764;2024-02-15T05:06:44;10.73;;;5.50;;
11837;SDS011;5978;51.020;6.764;2024-02-15T05:09:10;12.40;;;6.40;;
11837;SDS011;5978;51.020;6.764;2024-02-15T05:11:37;6.77;;;6.07;;
11837;SDS011;5978;51.020;6.764;2024-02-15T05:14:06;7.70;;;6.10;;
11837;SDS011;5978;51.020;6.764;2024-02-15T05:16:32;8.23;;;4.77;;
11837;SDS011;5978;51.020;6.764;2024-02-15T05:19:09;6.07;;;5.00;;
11837;SDS011;5978;51.020;6.764;2024-02-15T05:21:38;6.10;;;5.37;;
11837;SDS011;5978;51.020;6.764;2024-02-15T05:24:04;8.40;;;5.50;;
11837;SDS011;5978;51.020;6.764;2024-02-15T05:26:30;10.70;;;5.10;;
11837;SDS011;5978;51.020;6.764;2024-02-15T05:29:03;6.70;;;5.17;;
11837;SDS011;5978;51.020;6.764;2024-02-15T05:31:30;6.20;;;5.20;;
11837;SDS011;5978;51.020;6.764;2024-02-15T05:33:55;5.40;;;4.90;;
11837;SDS011;5978;51.020;6.764;2024-02-15T05:36:22;6.10;;;4.90;;
11837;SDS011;5978;51.020;6.764;2024-02-15T05:38:51;10.27;;;5.43;;
11837;SDS011;5978;51.020;6.764;2024-02-15T05:41:18;6.63;;;4.50;;
11837;SDS011;5978;51.020;6.764;2024-02-15T05:43:45;6.60;;;4.23;;
11837;SDS011;5978;51.020;6.764;2024-02-15T05:46:13;11.97;;;5.20;;
11837;SDS011;5978;51.020;6.764;2024-02-15T05:48:39;5.60;;;4.27;;
11837;SDS011;5978;51.020;6.764;2024-02-15T05:51:06;7.03;;;4.70;;
11837;SDS011;5978;51.020;6.764;2024-02-15T05:53:33;4.90;;;4.23;;
11837;SDS011;5978;51.020;6.764;2024-02-15T05:56:04;5.17;;;4.17;;
11837;SDS011;5978;51.020;6.764;2024-02-15T05:58:35;6.47;;;3.93;;
11837;SDS011;5978;51.020;6.764;2024-02-15T06:01:02;6.30;;;4.50;;
11837;SDS011;5978;51.020;6.764;2024-02-15T06:03:30;5.83;;;5.00;;
11837;SDS011;5978;51.020;6.764;2024-02-15T06:05:58;7.40;;;5.07;;
11837;SDS011;5978;51.020;6.764;2024-02-15T06:08:25;14.13;;;5.57;;
11837;SDS011;5978;51.020;6.764;2024-02-15T06:10:51;9.70;;;6.33;;
11837;SDS011;5978;51.020;6.764;2024-02-15T06:13:17;6.90;;;5.80;;
11837;SDS011;5978;51.020;6.764;2024-02-15T06:15:44;7.83;;;5.80;;
11837;SDS011;5978;51.020;6.764;2024-02-15T06:18:12;10.37;;;6.10;;
11837;SDS011;5978;51.020;6.764;2024-02-15T06:20:39;6.70;;;6.03;;
11837;SDS011;5978;51.020;6.764;2024-02-15T06:23:06;7.20;;;6.27;;
11837;SDS011;5978;51.020;6.764;2024-02-15T06:25:32;5.97;;;4.93;;
11837;SDS011;5978;51.020;6.764;2024-02-15T06:27:59;9.50;;;5.50;;
11837;SDS011;5978;51.020;6.764;2024-02-15T06:30:38;7.20;;;5.30;;
11837;SDS011;5978;51.020;6.764;2024-02-15T06:33:23;7.80;;;5.30;;
11837;SDS011;5978;51.020;6.764;2024-02-15T06:36:08;9.93;;;5.70;;
11837;SDS011;5978;51.020;6.764;2024-02-15T06:38:52;6.83;;;5.47;;
11837;SDS011;5978;51.020;6.764;2024-02-15T06:41:37;8.63;;;5.33;;
11837;SDS011;5978;51.020;6.764;2024-02-15T06:44:02;8.40;;;5.20;;
11837;SDS011;5978;51.020;6.764;2024-02-15T06:46:28;15.30;;;6.17;;
11837;SDS011;5978;51.020;6.764;2024-02-15T06:48:54;7.43;;;4.70;;
11837;SDS011;5978;51.020;6.764;2024-02-15T06:51:23;11.83;;;5.43;;
11837;SDS011;5978;51.020;6.764;2024-02-15T06:53:52;13.20;;;5.60;;
11837;SDS011;5978;51.020;6.764;2024-02-15T06:56:21;10.53;;;6.10;;
11837;SDS011;5978;51.020;6.764;2024-02-15T06:58:49;10.87;;;7.03;;
11837;SDS011;5978;51.020;6.764;2024-02-15T07:01:15;13.83;;;7.87;;
11837;SDS011;5978;51.020;6.764;2024-02-15T07:03:51;11.70;;;7.30;;
11837;SDS011;5978;51.020;6.764;2024-02-15T07:06:23;12.73;;;7.57;;
11837;SDS011;5978;51.020;6.764;2024-02-15T07:08:50;12.73;;;8.13;;
11837;SDS011;5978;51.020;6.764;2024-02-15T07:11:21;7.37;;;6.27;;
11837;SDS011;5978;51.020;6.764;2024-02-15T07:13:47;11.33;;;7.07;;
11837;SDS011;5978;51.020;6.764;2024-02-15T07:16:13;11.37;;;8.40;;
11837;SDS011;5978;51.020;6.764;2024-02-15T07:18:40;11.40;;;6.80;;
11837;SDS011;5978;51.020;6.764;2024-02-15T07:21:06;10.03;;;7.57;;
11837;SDS011;5978;51.020;6.764;2024-02-15T07:23:36;13.73;;;7.67;;
11837;SDS011;5978;51.020;6.764;2024-02-15T07:26:02;14.27;;;8.50;;
11837;SDS011;5978;51.020;6.764;2024-02-15T07:28:28;8.70;;;6.93;;
